Pollock, South Dakota
Current Conditions -  °F | °C
As of 12:55 PM on Sunday 23 Nov 2014 (Local Time) from K7L2 Reporting Station
Unknown Precip Unknown Precip  
Wind Chill:   Ceiling: 2500
Heat Index: 25°   Visibility: 10mi
Dew Point: 19°   Wind: 30mph
Humidity: 80%   Direction: 320°NW
Pressure: 29.58"   Gusts: 37mph
Location:  45.9°N, 100.29°W
Report Text: K7L2 231955Z AUTO 32026G32KT 10SM UP BKN025 OVC030 M04/M07 A2958 RMK AO2
Loading
Personal Weather Stations






























Interactive Weather Map New forecast layout! Learn more

10-Day Weather Forecast

Advertisements
Track Severe Weather on mobile